National Weather Service Raw Text Product

Displaying AFOS PIL: TAFALO Received: 2018-04-17 11:07 UTC


563 
FTUS43 KDMX 171107 AAC
TAFALO
TAF AMD
KALO 171107Z 1711/1806 29007KT P6SM SCT035
     FM171400 35006KT P6SM SKC
     FM172100 04007KT P6SM FEW180
     FM180200 07008KT P6SM SCT050=